Airfield :







YOU CAN JOIN US ON...

 
LOGIN :

Register | Disclaimer

   EN    FR    IT 

 









Legend :    VFR   Marginal VFR   IFR   Intensive IFR   Very Intensive IFR
Visi :
Ceiling :
>= 8 km
>= 3000ft
5 to 8 km
1000 to 3000 ft
1500m to 5 km
500 to 1000 ft
800 to 1500m
200 to 500 ft
< 800m
< 200 ft
Symbols :   Thunderstorms  Fog  Heavy snow  Heavy precipitations  Wind > 20 kt






- Airport Elevation : 328 ft


KGFL - Floyd Bennett Memorial

CURRENT METAR :
  • 120253Z AUTO 27009G18KT 10SM SCT043 M03/M12 A3034 RMK AO2 SLP283 60000 T10281122 53037

EXPIRED METARs :
  • 120153Z AUTO 23007KT 10SM FEW018 M03/M09 A3030 RMK AO2 SNB19E43 SLP271 P0000 T10281089
  • 120143Z AUTO 23010G16KT 9SM SCT025 SCT035 M02/M09 A3029 RMK AO2 SNB19E43 P0000 T10221089
  • 120134Z AUTO 24011G18KT 210V280 4SM -SN BKN028 BKN035 BKN048 M03/M08 A3030 RMK AO2 SNB19 P0000 T10281078
  • 120053Z AUTO 25008KT 210V280 10SM SCT055 M01/M12 A3026 RMK AO2 SLP258 T10111122

TAF KGFL
Valid from the 12 at 01:00 until the 13 at 00:00 UTC


120117Z 1201/1224 24008KT P6SM VCSH BKN050
FM120200 24014G23KT P6SM BKN050
FM120600 26008KT P6SM SKC
FM121200 24005KT P6SM SCT100
FM121800 17006KT P6SM SCT100



MET'MAP, your aeronautical weather chart ! - Copyright ORBIFLY December 2007 - Disclaimer

ORBIFLY MET'MAP TEAM :

Programming & Development : Alexandra Zaïnal
Concept & original design : Baudouin d'Aumeries
Assistance for programming : Marc-Olivier Méhu
Technical & hardware support : Manuel Goepfert

Contact : metmap@orbifly.com




SOURCES & CREDITS :

   NOAA